Time;durP1;ratioP1;P1;durP2;ratioP2;P2;SDS_P1;SDS_P2;PMS_P1;PMS_P2;Temp;Humidity;BMP_temperature;BMP_pressure;BME280_temperature;BME280_humidity;BME280_pressure;Samples;Min_cycle;Max_cycle;Signal;HPM_P1;HPM_P2
2021/12/21 00:00:12;;;;;;;9.77;4.72;;;;;;;-2.15;99.07;101950.94;845336;23;910;-52
2021/12/21 00:00:33;;;;;;;11.27;4.60;;;;;;;-2.18;98.97;101947.31;843004;23;652;-56
2021/12/21 00:00:54;;;;;;;11.95;4.68;;;;;;;-2.16;98.38;101951.75;843574;23;4519;-56
2021/12/21 00:01:14;;;;;;;10.10;4.90;;;;;;;-2.20;98.23;101947.19;845749;23;851;-52
2021/12/21 00:01:35;;;;;;;9.65;4.72;;;;;;;-2.20;98.86;101961.66;845448;23;860;-52
2021/12/21 00:01:55;;;;;;;10.47;4.93;;;;;;;-2.10;99.43;101941.91;848684;23;941;-52
2021/12/21 00:02:16;;;;;;;9.93;4.95;;;;;;;-1.97;99.74;101940.16;850036;23;800;-51
2021/12/21 00:02:36;;;;;;;9.67;5.10;;;;;;;-1.92;99.35;101939.69;848489;23;803;-53
2021/12/21 00:02:56;;;;;;;11.40;4.75;;;;;;;-1.85;99.47;101940.97;848804;23;842;-52
2021/12/21 00:03:17;;;;;;;11.50;4.90;;;;;;;-1.80;98.41;101934.50;849169;23;941;-52
2021/12/21 00:03:37;;;;;;;11.87;5.07;;;;;;;-1.83;97.79;101944.50;847388;23;918;-55
2021/12/21 00:03:58;;;;;;;14.57;5.67;;;;;;;-1.94;97.31;101937.78;844078;23;4284;-54
2021/12/21 00:04:19;;;;;;;13.20;5.40;;;;;;;-2.00;96.86;101939.97;843472;23;981;-53
2021/12/21 00:04:39;;;;;;;12.93;5.63;;;;;;;-2.07;96.81;101938.66;845647;23;717;-53
2021/12/21 00:04:59;;;;;;;12.40;5.80;;;;;;;-2.07;97.83;101939.53;846054;23;1077;-51
2021/12/21 00:05:25;;;;;;;14.67;6.20;;;;;;;-2.01;97.79;101941.63;844554;23;753;-54
2021/12/21 00:05:45;;;;;;;14.10;5.95;;;;;;;-2.04;97.78;101933.72;844956;23;985;-54
2021/12/21 00:06:06;;;;;;;13.60;6.17;;;;;;;-2.03;98.01;101938.09;846127;23;1121;-53
2021/12/21 00:06:26;;;;;;;13.43;6.17;;;;;;;-2.09;98.80;101930.88;848030;23;740;-52
2021/12/21 00:06:47;;;;;;;15.10;6.05;;;;;;;-2.14;98.20;101942.47;847489;23;1784;-55
2021/12/21 00:07:07;;;;;;;12.70;5.87;;;;;;;-2.11;99.31;101936.69;847999;23;4492;-52
2021/12/21 00:07:27;;;;;;;12.40;5.78;;;;;;;-2.01;99.08;101933.06;847350;23;764;-52
2021/12/21 00:07:52;;;;;;;13.47;6.23;;;;;;;-2.00;98.95;101938.28;848766;23;828;-53
2021/12/21 00:08:14;;;;;;;13.43;5.88;;;;;;;-2.11;97.54;101939.25;843496;23;922;-52
2021/12/21 00:08:36;;;;;;;13.88;6.20;;;;;;;-2.20;97.57;101934.41;844485;23;811;-52
2021/12/21 00:08:56;;;;;;;13.27;5.65;;;;;;;-2.22;97.74;101935.94;844773;23;800;-52
2021/12/21 00:09:16;;;;;;;13.48;5.90;;;;;;;-2.26;97.73;101936.53;843925;23;872;-51
2021/12/21 00:09:37;;;;;;;12.87;5.83;;;;;;;-2.27;97.86;101937.31;844043;23;871;-53
2021/12/21 00:09:57;;;;;;;12.32;5.40;;;;;;;-2.17;98.18;101939.72;843547;23;5100;-56
2021/12/21 00:10:20;;;;;;;13.27;5.82;;;;;;;-2.08;98.71;101936.88;845029;23;899;-55
2021/12/21 00:10:43;;;;;;;14.38;5.78;;;;;;;-1.96;98.44;101931.69;846028;23;951;-54
2021/12/21 00:11:04;;;;;;;14.60;5.60;;;;;;;-1.93;98.25;101937.00;844694;23;831;-53
2021/12/21 00:11:24;;;;;;;15.03;6.03;;;;;;;-2.10;97.51;101934.22;844655;23;843;-52
2021/12/21 00:11:45;;;;;;;13.98;5.97;;;;;;;-2.17;97.96;101933.69;846161;23;1252;-53
2021/12/21 00:12:06;;;;;;;13.17;6.17;;;;;;;-2.23;97.72;101937.63;845249;23;780;-55
2021/12/21 00:12:30;;;;;;;12.04;5.84;;;;;;;-2.24;98.02;101933.28;845010;23;736;-53
2021/12/21 00:13:04;;;;;;;12.57;5.65;;;;;;;-2.12;98.52;101940.94;844815;23;938;-53
2021/12/21 00:13:57;;;;;;;15.30;6.25;;;;;;;-2.06;98.42;101941.31;845620;23;875;-52
2021/12/21 00:14:35;;;;;;;12.68;6.10;;;;;;;-2.19;97.48;101938.72;843162;23;980;-51
2021/12/21 00:15:06;;;;;;;15.57;6.22;;;;;;;-2.26;97.77;101941.66;844805;23;1017;-53
2021/12/21 00:16:30;;;;;;;14.00;5.73;;;;;;;-2.03;98.95;101940.63;842975;23;4316;-52
2021/12/21 00:18:07;;;;;;;16.38;6.35;;;;;;;-2.21;98.76;101942.84;844929;23;828;-51
2021/12/21 00:18:38;;;;;;;12.20;6.05;;;;;;;-2.25;98.47;101938.31;845167;23;843;-54
2021/12/21 00:20:47;;;;;;;14.30;6.28;;;;;;;-2.22;98.93;101946.19;844715;23;962;-54
2021/12/21 00:21:55;;;;;;;14.63;6.15;;;;;;;-2.18;99.13;101940.50;836474;23;1124;-55
2021/12/21 00:21:56;;;;;;;13.13;6.05;;;;;;;-2.26;99.46;101941.66;844398;23;882;-55
2021/12/21 00:23:37;;;;;;;14.45;6.30;;;;;;;-2.21;99.41;101944.53;845225;23;894;-55
2021/12/21 00:24:02;;;;;;;13.00;6.05;;;;;;;-2.26;99.29;101939.09;844544;23;970;-56
2021/12/21 00:24:29;;;;;;;14.60;6.05;;;;;;;-2.31;98.84;101938.78;844195;23;891;-54
2021/12/21 00:24:50;;;;;;;12.13;5.55;;;;;;;-2.42;98.40;101944.84;844162;23;840;-55
2021/12/21 00:25:10;;;;;;;12.45;5.93;;;;;;;-2.47;98.20;101946.19;844009;23;4378;-53
2021/12/21 00:25:31;;;;;;;14.17;5.67;;;;;;;-2.45;98.41;101937.84;844218;23;863;-56
2021/12/21 00:25:51;;;;;;;12.60;5.75;;;;;;;-2.25;99.29;101944.31;845825;23;990;-51
2021/12/21 00:26:19;;;;;;;12.73;6.03;;;;;;;-2.20;99.00;101948.84;843458;23;809;-54
2021/12/21 00:26:39;;;;;;;16.00;6.00;;;;;;;-2.25;99.35;101946.00;844324;23;878;-56
2021/12/21 00:27:00;;;;;;;15.13;5.70;;;;;;;-2.31;99.33;101943.00;844891;23;921;-54
2021/12/21 00:27:21;;;;;;;14.38;6.13;;;;;;;-2.31;99.19;101943.91;844283;23;927;-54
2021/12/21 00:27:44;;;;;;;14.10;5.88;;;;;;;-2.33;99.74;101950.59;845520;23;922;-53
2021/12/21 00:28:04;;;;;;;14.32;5.47;;;;;;;-2.28;100.00;101945.78;838901;23;4266;-56
2021/12/21 00:28:26;;;;;;;12.68;6.20;;;;;;;-2.25;99.98;101938.31;840579;23;927;-53
2021/12/21 00:29:08;;;;;;;12.75;5.80;;;;;;;-2.29;99.75;101942.31;845658;23;955;-51
2021/12/21 00:29:28;;;;;;;14.32;5.53;;;;;;;-2.33;99.27;101940.34;845498;23;895;-52
2021/12/21 00:29:49;;;;;;;16.80;5.70;;;;;;;-2.34;99.53;101942.78;846103;23;891;-54
2021/12/21 00:30:10;;;;;;;14.60;6.07;;;;;;;-2.30;99.89;101940.56;843890;23;1249;-55
2021/12/21 00:30:30;;;;;;;12.52;5.70;;;;;;;-2.31;99.98;101941.34;845171;23;887;-53
2021/12/21 00:30:51;;;;;;;12.83;5.53;;;;;;;-2.35;100.00;101934.25;844765;23;963;-52
2021/12/21 00:31:12;;;;;;;11.45;5.90;;;;;;;-2.31;100.00;101936.22;843157;23;4297;-51
2021/12/21 00:31:36;;;;;;;12.53;5.67;;;;;;;-2.30;99.92;101938.00;843303;23;863;-51
2021/12/21 00:31:56;;;;;;;11.77;5.40;;;;;;;-2.34;100.00;101932.56;845357;23;800;-52
2021/12/21 00:32:17;;;;;;;10.95;5.00;;;;;;;-2.35;99.69;101935.88;844950;23;915;-51
2021/12/21 00:32:37;;;;;;;11.17;5.07;;;;;;;-2.37;99.05;101932.34;844090;23;879;-51
2021/12/21 00:32:57;;;;;;;13.05;5.30;;;;;;;-2.42;98.89;101934.59;845040;23;919;-54
2021/12/21 00:33:18;;;;;;;15.70;6.23;;;;;;;-2.44;98.84;101939.63;843465;23;855;-55
2021/12/21 00:33:45;;;;;;;14.45;6.35;;;;;;;-2.34;99.61;101935.13;843992;23;740;-52
2021/12/21 00:34:07;;;;;;;12.15;5.70;;;;;;;-2.06;99.53;101941.31;844113;23;4311;-52
2021/12/21 00:34:28;;;;;;;11.95;5.55;;;;;;;-1.91;99.42;101930.31;844629;23;915;-52
2021/12/21 00:34:48;;;;;;;12.60;5.85;;;;;;;-1.96;98.52;101934.25;847523;23;796;-52
2021/12/21 00:35:09;;;;;;;14.37;6.33;;;;;;;-2.02;97.86;101928.69;848403;23;975;-53
2021/12/21 00:35:30;;;;;;;17.90;6.70;;;;;;;-2.14;97.84;101931.34;849032;23;832;-55
2021/12/21 00:35:50;;;;;;;16.97;6.47;;;;;;;-2.21;98.62;101936.84;849362;23;756;-52
2021/12/21 00:36:12;;;;;;;17.23;6.00;;;;;;;-2.18;98.42;101927.69;849659;23;858;-54
2021/12/21 00:36:33;;;;;;;16.06;6.42;;;;;;;-2.26;98.68;101934.88;848259;23;788;-54
2021/12/21 00:36:53;;;;;;;16.27;6.90;;;;;;;-2.32;98.25;101933.56;847201;23;4406;-53
2021/12/21 00:37:14;;;;;;;17.73;7.27;;;;;;;-2.41;98.29;101927.03;848409;23;824;-52
2021/12/21 00:37:36;;;;;;;19.05;7.22;;;;;;;-2.43;98.88;101933.69;848904;23;779;-54
2021/12/21 00:37:57;;;;;;;15.63;7.07;;;;;;;-2.36;99.67;101932.44;849381;23;921;-51
2021/12/21 00:38:17;;;;;;;13.52;6.53;;;;;;;-2.19;99.84;101936.16;849299;23;959;-54
2021/12/21 00:38:38;;;;;;;15.33;6.27;;;;;;;-2.12;99.25;101930.69;848277;23;978;-52
2021/12/21 00:39:04;;;;;;;14.55;6.10;;;;;;;-2.12;98.83;101932.31;845189;23;919;-54
2021/12/21 00:39:24;;;;;;;14.30;6.75;;;;;;;-2.19;98.88;101933.59;845741;23;1041;-53
2021/12/21 00:39:44;;;;;;;15.67;7.23;;;;;;;-2.28;97.78;101933.88;845611;23;867;-55
2021/12/21 00:40:05;;;;;;;15.20;6.93;;;;;;;-2.31;98.14;101930.19;843140;23;4290;-52
2021/12/21 00:40:26;;;;;;;15.18;6.88;;;;;;;-2.33;98.64;101932.66;844952;23;807;-54
2021/12/21 00:40:46;;;;;;;15.27;6.37;;;;;;;-2.27;98.78;101934.75;846188;23;835;-55
2021/12/21 00:41:07;;;;;;;14.05;5.82;;;;;;;-2.14;98.82;101928.78;844505;23;1947;-54
2021/12/21 00:41:27;;;;;;;14.23;6.00;;;;;;;-2.08;98.62;101932.66;843820;23;863;-54
2021/12/21 00:41:47;;;;;;;12.68;5.10;;;;;;;-2.01;98.45;101927.94;844029;23;1312;-51
2021/12/21 00:42:08;;;;;;;10.93;4.53;;;;;;;-2.00;97.91;101929.72;841950;23;1135;-54
2021/12/21 00:42:29;;;;;;;12.50;4.97;;;;;;;-2.07;97.97;101929.28;845088;23;982;-52
2021/12/21 00:42:49;;;;;;;12.07;5.07;;;;;;;-2.16;98.01;101925.22;844503;23;883;-52
2021/12/21 00:43:09;;;;;;;10.37;4.80;;;;;;;-2.20;98.18;101926.72;842768;23;4356;-52
2021/12/21 00:43:31;;;;;;;9.67;4.57;;;;;;;-2.22;98.43;101928.25;844271;23;748;-51
2021/12/21 00:43:52;;;;;;;9.32;4.35;;;;;;;-2.24;98.84;101933.28;845628;23;808;-52
2021/12/21 00:44:12;;;;;;;9.27;4.70;;;;;;;-2.18;99.17;101924.25;849544;23;772;-55
2021/12/21 00:44:32;;;;;;;9.43;4.77;;;;;;;-2.17;99.33;101934.59;847453;23;906;-53
2021/12/21 00:44:53;;;;;;;10.90;4.85;;;;;;;-2.07;98.81;101929.28;848340;23;918;-53
2021/12/21 00:45:13;;;;;;;9.33;4.50;;;;;;;-1.95;98.37;101928.31;847469;23;831;-51
2021/12/21 00:45:33;;;;;;;8.88;4.18;;;;;;;-1.95;97.73;101931.78;843571;23;1182;-53
2021/12/21 00:45:54;;;;;;;9.80;4.53;;;;;;;-2.01;97.65;101933.94;844597;23;4346;-55
2021/12/21 00:46:15;;;;;;;9.80;4.60;;;;;;;-2.06;97.33;101931.06;844484;23;867;-52
2021/12/21 00:46:38;;;;;;;9.05;4.25;;;;;;;-2.04;97.42;101932.84;844973;23;997;-54
2021/12/21 00:46:58;;;;;;;8.07;3.97;;;;;;;-2.04;97.53;101925.16;845142;23;902;-52
2021/12/21 00:47:18;;;;;;;8.23;4.07;;;;;;;-2.10;97.39;101931.66;846224;23;1002;-53
2021/12/21 00:47:42;;;;;;;9.17;4.50;;;;;;;-2.17;96.82;101926.00;843897;23;760;-53
2021/12/21 00:48:02;;;;;;;7.68;4.15;;;;;;;-2.26;96.42;101936.53;849246;23;815;-53
2021/12/21 00:48:28;;;;;;;8.70;4.20;;;;;;;-2.30;96.96;101931.97;848182;23;796;-53
2021/12/21 00:48:51;;;;;;;9.43;4.57;;;;;;;-2.27;97.69;101929.63;848814;23;764;-52
2021/12/21 00:49:14;;;;;;;9.68;4.53;;;;;;;-2.24;97.96;101935.84;846741;23;4720;-55
2021/12/21 00:49:36;;;;;;;8.80;4.80;;;;;;;-2.20;98.54;101936.06;847942;23;914;-55
2021/12/21 00:50:02;;;;;;;10.13;4.85;;;;;;;-2.23;98.63;101927.38;845645;23;875;-54
2021/12/21 00:50:23;;;;;;;10.02;4.80;;;;;;;-2.26;98.56;101941.66;849382;23;675;-52
2021/12/21 00:50:44;;;;;;;12.45;5.00;;;;;;;-2.30;98.63;101927.75;848722;23;891;-55
2021/12/21 00:51:06;;;;;;;11.02;5.10;;;;;;;-2.31;98.68;101930.19;848142;23;911;-55
2021/12/21 00:51:27;;;;;;;9.88;4.50;;;;;;;-2.36;98.03;101931.56;848819;23;836;-52
2021/12/21 00:51:48;;;;;;;9.75;4.68;;;;;;;-2.37;98.92;101924.66;848204;23;749;-55
2021/12/21 00:52:08;;;;;;;9.63;5.00;;;;;;;-2.30;98.72;101934.53;847102;23;4279;-55
2021/12/21 00:52:29;;;;;;;10.13;5.00;;;;;;;-2.26;99.21;101927.19;843580;23;725;-54
2021/12/21 00:52:52;;;;;;;12.02;5.32;;;;;;;-2.23;99.15;101929.94;844018;23;783;-55
2021/12/21 00:53:12;;;;;;;11.05;5.13;;;;;;;-2.18;98.89;101927.69;845875;23;799;-55
2021/12/21 00:53:36;;;;;;;11.75;5.53;;;;;;;-2.13;98.54;101928.88;845814;23;793;-53
2021/12/21 00:53:56;;;;;;;13.73;5.80;;;;;;;-2.12;97.84;101930.69;843785;23;851;-52
2021/12/21 00:54:17;;;;;;;13.33;6.20;;;;;;;-2.23;98.06;101935.06;842668;23;895;-52
2021/12/21 00:54:38;;;;;;;13.75;6.22;;;;;;;-2.24;97.98;101934.97;843206;23;1308;-55
2021/12/21 00:54:58;;;;;;;14.37;6.20;;;;;;;-2.35;97.67;101941.00;844664;23;4221;-55
2021/12/21 00:55:20;;;;;;;13.40;5.87;;;;;;;-2.45;97.72;101940.41;845125;23;791;-55
2021/12/21 00:55:40;;;;;;;16.10;6.47;;;;;;;-2.43;98.54;101933.69;845066;23;2662;-52
2021/12/21 00:56:01;;;;;;;14.47;6.13;;;;;;;-2.28;99.01;101935.56;845168;23;899;-56
2021/12/21 00:56:22;;;;;;;14.43;6.05;;;;;;;-2.21;98.83;101940.28;844571;23;805;-54
2021/12/21 00:56:42;;;;;;;15.25;6.03;;;;;;;-2.16;98.49;101938.03;845106;23;895;-53
2021/12/21 00:57:04;;;;;;;13.38;6.25;;;;;;;-2.25;98.74;101934.06;844476;23;872;-55
2021/12/21 00:57:25;;;;;;;13.57;6.55;;;;;;;-2.32;98.71;101931.88;845548;23;951;-52
2021/12/21 00:57:46;;;;;;;18.60;7.60;;;;;;;-2.33;98.01;101929.22;845792;23;902;-54
2021/12/21 00:58:06;;;;;;;24.38;9.52;;;;;;;-2.38;97.92;101928.00;845933;23;4305;-56
2021/12/21 00:58:26;;;;;;;23.77;9.38;;;;;;;-2.45;98.15;101935.28;848853;23;756;-56
2021/12/21 00:58:47;;;;;;;22.17;9.20;;;;;;;-2.48;98.85;101932.53;849247;23;860;-53
2021/12/21 00:59:08;;;;;;;19.42;8.07;;;;;;;-2.48;99.60;101929.06;846404;23;856;-56
2021/12/21 00:59:28;;;;;;;21.08;8.23;;;;;;;-2.52;99.97;101933.09;848455;23;906;-53
2021/12/21 00:59:48;;;;;;;21.13;8.60;;;;;;;-2.55;100.00;101931.97;848562;23;737;-55
2021/12/21 01:00:11;;;;;;;20.25;8.88;;;;;;;-2.61;99.75;101933.31;847697;23;768;-52
2021/12/21 01:00:32;;;;;;;22.70;8.90;;;;;;;-2.63;99.82;101928.88;848649;23;932;-52
2021/12/21 01:00:52;;;;;;;24.33;8.47;;;;;;;-2.61;100.00;101933.31;848155;23;1946;-53
2021/12/21 01:01:13;;;;;;;23.77;8.32;;;;;;;-2.46;100.00;101933.50;842963;23;4453;-52
2021/12/21 01:01:35;;;;;;;21.83;8.30;;;;;;;-2.27;99.89;101927.06;844793;23;975;-55
2021/12/21 01:01:56;;;;;;;22.13;9.05;;;;;;;-2.16;99.53;101926.13;845130;23;831;-52
2021/12/21 01:02:17;;;;;;;25.05;10.13;;;;;;;-2.19;98.82;101931.03;844048;23;875;-53
2021/12/21 01:02:39;;;;;;;24.88;9.48;;;;;;;-2.29;98.59;101926.06;844153;23;781;-51
2021/12/21 01:03:05;;;;;;;22.75;9.18;;;;;;;-2.36;99.01;101923.91;845759;23;982;-54
2021/12/21 01:03:26;;;;;;;28.17;10.85;;;;;;;-2.45;98.71;101924.13;845635;23;969;-55
2021/12/21 01:03:54;;;;;;;25.58;10.75;;;;;;;-2.49;99.28;101933.28;845088;23;767;-51
2021/12/21 01:04:25;;;;;;;28.67;10.20;;;;;;;-2.48;99.65;101929.06;842397;23;4718;-52
2021/12/21 01:04:48;;;;;;;28.67;10.20;;;;;;;-2.54;99.37;101924.41;844886;23;891;-53
2021/12/21 01:05:20;;;;;;;30.00;10.00;;;;;;;-2.63;99.23;101922.09;844968;23;898;-54
2021/12/21 01:05:58;;;;;;;29.58;11.48;;;;;;;-2.70;99.37;101922.47;844943;23;927;-52
2021/12/21 01:06:43;;;;;;;31.13;12.03;;;;;;;-2.74;99.98;101923.91;844822;23;899;-54
2021/12/21 01:07:16;;;;;;;27.23;10.55;;;;;;;-2.71;100.00;101919.78;843880;23;4380;-54
2021/12/21 01:07:41;;;;;;;27.88;11.15;;;;;;;-2.68;100.00;101920.00;845100;23;694;-52
2021/12/21 01:08:04;;;;;;;28.95;11.15;;;;;;;-2.68;99.57;101920.00;844738;23;927;-53
2021/12/21 01:08:28;;;;;;;26.45;10.20;;;;;;;-2.67;100.00;101919.22;844039;23;816;-53
2021/12/21 01:09:07;;;;;;;25.05;10.18;;;;;;;-2.60;100.00;101926.56;843248;23;1166;-54
2021/12/21 01:11:07;;;;;;;28.88;11.05;;;;;;;-2.50;99.94;101925.50;843757;23;910;-51
2021/12/21 01:11:35;;;;;;;29.98;11.63;;;;;;;-2.60;99.23;101929.13;844299;23;859;-51
2021/12/21 01:12:00;;;;;;;29.17;11.07;;;;;;;-2.66;99.40;101926.13;843438;23;836;-55
2021/12/21 01:13:26;;;;;;;28.52;11.10;;;;;;;-2.21;99.79;101919.78;834607;23;4244;-53
2021/12/21 01:16:02;;;;;;;22.85;10.20;;;;;;;-2.42;98.96;101922.69;846426;23;933;-55
2021/12/21 01:16:31;;;;;;;23.35;8.95;;;;;;;-2.33;99.43;101918.97;842384;23;5845;-55
2021/12/21 01:17:12;;;;;;;20.98;8.50;;;;;;;-2.15;98.85;101917.63;849285;23;946;-56
2021/12/21 01:17:49;;;;;;;21.52;9.00;;;;;;;-2.24;98.44;101915.34;848160;23;1017;-52
2021/12/21 01:18:18;;;;;;;19.15;8.27;;;;;;;-2.42;98.01;101922.69;849791;23;930;-55
2021/12/21 01:18:53;;;;;;;19.45;8.38;;;;;;;-2.52;98.15;101921.94;848315;23;898;-53
2021/12/21 01:19:21;;;;;;;20.23;7.95;;;;;;;-2.56;99.10;101926.00;843559;23;4666;-51
2021/12/21 01:19:59;;;;;;;20.63;8.38;;;;;;;-2.54;100.00;101919.28;844481;23;883;-53
2021/12/21 01:21:13;;;;;;;17.83;8.03;;;;;;;-2.71;98.94;101930.03;845141;23;1933;-53
2021/12/21 01:21:44;;;;;;;15.73;7.30;;;;;;;-2.78;99.14;101924.50;844402;23;969;-55
2021/12/21 01:22:16;;;;;;;17.58;8.13;;;;;;;-2.76;99.76;101916.91;843928;23;4257;-52
2021/12/21 01:26:21;;;;;;;16.70;7.82;;;;;;;-2.83;100.00;101917.28;836173;23;868;-55
2021/12/21 01:28:27;;;;;;;14.75;6.50;;;;;;;-2.72;100.00;101920.59;818580;24;4873;-55
2021/12/21 01:28:37;;;;;;;17.02;7.13;;;;;;;-2.69;100.00;101913.09;832141;23;852;-55
2021/12/21 01:29:02;;;;;;;15.70;6.85;;;;;;;-2.67;100.00;101916.66;841572;23;1539;-53
2021/12/21 01:29:32;;;;;;;15.23;6.50;;;;;;;-2.60;100.00;101918.88;845639;23;993;-53
2021/12/21 01:30:25;;;;;;;12.38;6.38;;;;;;;-2.63;100.00;101918.63;845228;23;871;-55
2021/12/21 01:31:03;;;;;;;13.73;6.13;;;;;;;-2.65;100.00;101915.97;849038;23;729;-56
2021/12/21 01:33:00;;;;;;;12.35;6.00;;;;;;;-2.71;100.00;101915.56;831513;23;1190;-54
2021/12/21 01:34:25;;;;;;;11.98;5.78;;;;;;;-2.80;100.00;101915.81;842853;23;4420;-54
2021/12/21 01:35:19;;;;;;;12.52;6.07;;;;;;;-2.85;100.00;101912.06;846681;23;815;-53
2021/12/21 01:35:44;;;;;;;11.98;5.90;;;;;;;-2.87;100.00;101913.59;844694;23;846;-53
2021/12/21 01:36:14;;;;;;;13.63;6.30;;;;;;;-2.87;100.00;101918.72;845093;23;815;-52
2021/12/21 01:36:42;;;;;;;14.43;6.28;;;;;;;-2.84;100.00;101913.81;845187;23;926;-54
2021/12/21 01:37:16;;;;;;;12.20;5.93;;;;;;;-2.81;100.00;101918.25;844650;23;4279;-52
2021/12/21 01:38:56;;;;;;;14.17;6.13;;;;;;;-2.85;100.00;101913.69;849900;23;974;-52
2021/12/21 01:40:41;;;;;;;11.98;5.50;;;;;;;-2.85;100.00;101914.63;843435;23;4672;-52
2021/12/21 01:41:40;;;;;;;11.93;5.43;;;;;;;-2.87;100.00;101911.03;845113;23;779;-53
2021/12/21 01:42:09;;;;;;;10.98;5.78;;;;;;;-2.91;100.00;101911.59;845074;23;771;-56
2021/12/21 01:43:44;;;;;;;12.43;6.05;;;;;;;-2.94;100.00;101909.72;843672;23;4702;-50
2021/12/21 01:49:31;;;;;;;9.93;5.10;;;;;;;-2.89;100.00;101909.16;844964;23;990;-53
2021/12/21 01:49:37;;;;;;;11.48;5.43;;;;;;;-2.37;99.96;101911.84;846730;23;4936;-53
2021/12/21 01:49:58;;;;;;;11.32;5.20;;;;;;;-2.43;98.85;101913.22;844844;23;1187;-55
2021/12/21 01:50:18;;;;;;;11.23;5.50;;;;;;;-2.54;99.18;101914.16;844874;23;1033;-54
2021/12/21 01:50:39;;;;;;;10.38;5.10;;;;;;;-2.61;99.44;101906.84;844489;23;760;-54
2021/12/21 01:50:59;;;;;;;9.87;4.93;;;;;;;-2.63;99.53;101910.97;845273;23;886;-53
2021/12/21 01:51:20;;;;;;;9.50;4.80;;;;;;;-2.67;99.34;101907.31;845367;23;827;-56
2021/12/21 01:51:40;;;;;;;9.57;4.90;;;;;;;-2.74;99.03;101911.13;845828;23;1018;-56
2021/12/21 01:52:01;;;;;;;9.60;4.90;;;;;;;-2.75;99.41;101911.91;848122;23;4471;-55
2021/12/21 01:52:25;;;;;;;9.52;4.90;;;;;;;-2.76;99.38;101910.09;848601;23;760;-55
2021/12/21 01:52:46;;;;;;;9.07;4.90;;;;;;;-2.75;99.52;101916.13;848788;23;846;-53
2021/12/21 01:53:07;;;;;;;10.00;5.00;;;;;;;-2.76;99.54;101916.91;848108;23;910;-55
2021/12/21 01:53:27;;;;;;;8.73;4.82;;;;;;;-2.76;99.41;101907.56;849030;23;867;-52
2021/12/21 01:53:48;;;;;;;8.87;4.80;;;;;;;-2.76;99.43;101915.22;847702;23;741;-55
2021/12/21 01:54:09;;;;;;;8.45;4.60;;;;;;;-2.75;99.52;101911.03;843821;23;954;-52
2021/12/21 01:54:29;;;;;;;8.80;4.70;;;;;;;-2.75;99.71;101917.00;846800;23;874;-53
2021/12/21 01:54:52;;;;;;;8.37;4.77;;;;;;;-2.78;99.60;101909.13;847708;23;780;-55
2021/12/21 01:55:12;;;;;;;8.43;4.70;;;;;;;-2.78;99.76;101916.81;846777;23;4236;-53
2021/12/21 01:55:33;;;;;;;8.75;4.75;;;;;;;-2.80;100.00;101910.69;848400;23;919;-54
2021/12/21 01:55:53;;;;;;;9.55;4.95;;;;;;;-2.83;100.00;101913.03;849316;23;939;-52
2021/12/21 01:56:14;;;;;;;9.67;4.70;;;;;;;-2.80;100.00;101910.69;844965;23;1461;-56
2021/12/21 01:56:35;;;;;;;9.75;4.95;;;;;;;-2.76;100.00;101909.22;844883;23;910;-51
2021/12/21 01:56:55;;;;;;;7.93;4.80;;;;;;;-2.78;100.00;101914.25;844198;23;839;-54
2021/12/21 01:57:16;;;;;;;10.03;5.17;;;;;;;-2.81;100.00;101908.03;844181;23;958;-54
2021/12/21 01:57:37;;;;;;;8.88;5.03;;;;;;;-2.84;100.00;101908.69;844371;23;918;-54
2021/12/21 01:57:57;;;;;;;8.17;4.70;;;;;;;-2.89;100.00;101904.94;844799;23;4405;-51
2021/12/21 01:58:17;;;;;;;9.17;4.60;;;;;;;-2.91;100.00;101906.50;845083;23;907;-53
2021/12/21 01:58:39;;;;;;;13.00;5.45;;;;;;;-2.88;100.00;101906.72;844056;23;796;-55
2021/12/21 01:59:00;;;;;;;13.95;5.85;;;;;;;-2.85;100.00;101906.94;846412;23;887;-52
2021/12/21 01:59:20;;;;;;;14.90;6.20;;;;;;;-2.86;100.00;101905.16;844161;23;761;-55
2021/12/21 01:59:48;;;;;;;14.35;6.47;;;;;;;-2.88;100.00;101901.63;843601;23;768;-51
2021/12/21 02:00:09;;;;;;;14.20;6.38;;;;;;;-2.88;100.00;101911.84;845253;23;958;-53
2021/12/21 02:00:30;;;;;;;15.85;6.53;;;;;;;-2.92;100.00;101905.63;844199;23;954;-53
2021/12/21 02:00:51;;;;;;;16.77;6.45;;;;;;;-2.88;100.00;101910.94;844834;23;1921;-51
2021/12/21 02:01:15;;;;;;;15.27;6.10;;;;;;;-2.86;100.00;101910.28;843705;23;4238;-52
2021/12/21 02:01:35;;;;;;;16.73;6.60;;;;;;;-2.87;100.00;101913.59;843055;23;870;-54
2021/12/21 02:01:56;;;;;;;16.73;6.57;;;;;;;-2.84;100.00;101911.25;845555;23;882;-52
2021/12/21 02:02:19;;;;;;;18.27;7.00;;;;;;;-2.79;100.00;101916.72;845547;23;1021;-54
2021/12/21 02:02:39;;;;;;;21.88;7.75;;;;;;;-2.79;100.00;101914.16;844074;23;1064;-52
2021/12/21 02:03:02;;;;;;;21.20;7.50;;;;;;;-2.79;100.00;101914.16;846102;23;934;-54
2021/12/21 02:03:22;;;;;;;21.88;7.40;;;;;;;-2.79;100.00;101916.72;844066;23;913;-55
2021/12/21 02:03:49;;;;;;;21.13;7.65;;;;;;;-2.79;100.00;101906.47;845125;23;924;-53
2021/12/21 02:04:15;;;;;;;18.88;6.93;;;;;;;-2.76;100.00;101920.34;841972;23;4260;-52
2021/12/21 02:04:37;;;;;;;20.80;7.32;;;;;;;-2.78;100.00;101911.69;845448;23;820;-54
2021/12/21 02:04:57;;;;;;;22.77;7.65;;;;;;;-2.78;100.00;101916.81;845405;23;938;-51
2021/12/21 02:05:18;;;;;;;26.27;8.50;;;;;;;-2.78;100.00;101910.81;844598;23;759;-54
2021/12/21 02:05:39;;;;;;;28.95;8.73;;;;;;;-2.78;100.00;101911.69;844805;23;856;-53
2021/12/21 02:06:03;;;;;;;28.30;8.15;;;;;;;-2.77;100.00;101913.47;845857;23;958;-51
2021/12/21 02:06:27;;;;;;;29.35;9.63;;;;;;;-2.73;100.00;101914.56;844565;23;795;-55
2021/12/21 02:06:49;;;;;;;33.58;10.63;;;;;;;-2.53;100.00;101912.47;845492;23;858;-54
2021/12/21 02:07:10;;;;;;;30.33;9.82;;;;;;;-2.38;100.00;101910.97;842980;23;4270;-51
2021/12/21 02:07:31;;;;;;;27.27;9.23;;;;;;;-2.28;99.51;101910.81;845006;23;852;-54
2021/12/21 02:07:51;;;;;;;30.00;9.73;;;;;;;-2.18;98.70;101911.44;846251;23;725;-53
2021/12/21 02:08:12;;;;;;;27.90;9.48;;;;;;;-2.22;97.88;101907.78;843842;23;895;-50
2021/12/21 02:08:32;;;;;;;30.70;9.30;;;;;;;-2.29;98.11;101911.59;843168;23;796;-53
2021/12/21 02:08:53;;;;;;;26.40;8.67;;;;;;;-2.37;97.97;101911.84;845070;23;1042;-55
2021/12/21 02:09:14;;;;;;;27.48;8.98;;;;;;;-2.46;98.32;101912.13;844887;23;993;-55
2021/12/21 02:09:38;;;;;;;27.77;9.88;;;;;;;-2.55;98.67;101909.81;845860;23;930;-52
2021/12/21 02:09:59;;;;;;;25.30;9.20;;;;;;;-2.61;99.11;101906.84;846909;23;4542;-51
2021/12/21 02:10:20;;;;;;;27.13;8.67;;;;;;;-2.68;98.93;101909.78;848752;23;674;-55
2021/12/21 02:10:41;;;;;;;32.50;10.05;;;;;;;-2.76;98.92;101910.09;847743;23;970;-53
2021/12/21 02:11:04;;;;;;;26.40;9.57;;;;;;;-2.83;99.12;101910.47;848394;23;844;-55
2021/12/21 02:11:24;;;;;;;27.95;9.48;;;;;;;-2.92;99.67;101905.63;847885;23;812;-52
2021/12/21 02:11:47;;;;;;;26.20;9.07;;;;;;;-2.96;99.79;101906.19;846163;23;1385;-53
2021/12/21 02:12:11;;;;;;;33.70;9.95;;;;;;;-2.99;99.96;101912.75;844246;23;847;-55
2021/12/21 02:12:31;;;;;;;32.90;10.30;;;;;;;-3.03;100.00;101905.63;845171;23;914;-52
2021/12/21 02:12:52;;;;;;;30.55;10.38;;;;;;;-3.08;100.00;101906.19;845146;23;1055;-56
2021/12/21 02:13:12;;;;;;;28.48;9.88;;;;;;;-3.09;100.00;101907.00;841597;23;4355;-55
2021/12/21 02:13:36;;;;;;;29.23;10.17;;;;;;;-3.10;100.00;101902.66;845733;23;871;-54
2021/12/21 02:13:57;;;;;;;33.25;10.23;;;;;;;-3.14;100.00;101908.34;845656;23;772;-55
2021/12/21 02:14:17;;;;;;;28.40;9.85;;;;;;;-3.19;100.00;101903.69;844279;23;1052;-53
2021/12/21 02:14:39;;;;;;;30.00;11.23;;;;;;;-3.21;100.00;101907.78;845102;23;764;-52
2021/12/21 02:15:01;;;;;;;32.83;12.02;;;;;;;-3.20;100.00;101901.88;844995;23;867;-55
2021/12/21 02:15:24;;;;;;;35.80;11.98;;;;;;;-3.28;100.00;101903.88;844087;23;927;-55
2021/12/21 02:15:44;;;;;;;34.65;11.80;;;;;;;-3.32;100.00;101901.94;844491;23;934;-54
2021/12/21 02:16:05;;;;;;;38.73;12.27;;;;;;;-3.31;100.00;101909.69;843704;23;4230;-57
2021/12/21 02:16:34;;;;;;;34.17;10.85;;;;;;;-3.29;100.00;101905.56;845416;23;807;-55
2021/12/21 02:19:39;;;;;;;28.38;9.25;;;;;;;-2.99;100.00;101905.06;834646;23;4733;-54
2021/12/21 02:20:13;;;;;;;26.85;9.30;;;;;;;-3.05;100.00;101900.41;844072;23;1017;-51
2021/12/21 02:20:59;;;;;;;27.57;8.93;;;;;;;-2.94;100.00;101904.59;844667;23;1946;-55
2021/12/21 02:21:30;;;;;;;28.15;9.27;;;;;;;-2.86;100.00;101906.84;844076;23;931;-54